Terminal Aerodrome Forecast
Issued by NWS Paducah, KY

Home | Current Version | Previous Version | Text Only | Print | Product List | Glossary On
Versions: 1 2 3 4 5 6 7 8 9 10 11 12 13 14
584
FTUS43 KPAH 261738
TAFEVV
TAF
KEVV 261738Z 2618/2718 18015G22KT P6SM SCT025 BKN060
     FM270200 18012G22KT P6SM VCTS BKN025CB PROB30 2703/2707 3SM
      TSRA OVC015CB
     FM270800 24011KT P6SM BKN025=

USA.gov is the U.S. government's official web portal to all federal, state and local government web resources and services.